sensor_id;sensor_type;location;lat;lon;timestamp;P1;durP1;ratioP1;P2;durP2;ratioP2
59127;SDS011;44912;52.754;5.994;2023-11-21T00:02:22;44.05;;;17.88;;
59127;SDS011;44912;52.754;5.994;2023-11-21T00:04:48;51.33;;;18.25;;
59127;SDS011;44912;52.754;5.994;2023-11-21T00:07:14;52.13;;;17.83;;
59127;SDS011;44912;52.754;5.994;2023-11-21T00:09:40;47.80;;;18.15;;
59127;SDS011;44912;52.754;5.994;2023-11-21T00:12:06;45.50;;;17.77;;
59127;SDS011;44912;52.754;5.994;2023-11-21T00:14:38;50.20;;;18.17;;
59127;SDS011;44912;52.754;5.994;2023-11-21T00:17:04;48.05;;;17.42;;
59127;SDS011;44912;52.754;5.994;2023-11-21T00:19:30;53.28;;;17.77;;
59127;SDS011;44912;52.754;5.994;2023-11-21T00:22:02;52.47;;;18.23;;
59127;SDS011;44912;52.754;5.994;2023-11-21T00:24:27;47.60;;;17.38;;
59127;SDS011;44912;52.754;5.994;2023-11-21T00:26:53;48.13;;;17.30;;
59127;SDS011;44912;52.754;5.994;2023-11-21T00:29:19;49.85;;;17.35;;
59127;SDS011;44912;52.754;5.994;2023-11-21T00:31:44;48.53;;;18.25;;
59127;SDS011;44912;52.754;5.994;2023-11-21T00:34:13;53.05;;;17.20;;
59127;SDS011;44912;52.754;5.994;2023-11-21T00:36:39;45.70;;;15.93;;
59127;SDS011;44912;52.754;5.994;2023-11-21T00:39:05;54.70;;;18.77;;
59127;SDS011;44912;52.754;5.994;2023-11-21T00:41:31;49.35;;;17.67;;
59127;SDS011;44912;52.754;5.994;2023-11-21T00:43:57;52.47;;;18.17;;
59127;SDS011;44912;52.754;5.994;2023-11-21T00:46:24;50.95;;;17.40;;
59127;SDS011;44912;52.754;5.994;2023-11-21T00:48:52;51.55;;;18.52;;
59127;SDS011;44912;52.754;5.994;2023-11-21T00:51:19;43.13;;;16.83;;
59127;SDS011;44912;52.754;5.994;2023-11-21T00:53:44;38.55;;;17.02;;
59127;SDS011;44912;52.754;5.994;2023-11-21T00:56:10;48.55;;;17.30;;
59127;SDS011;44912;52.754;5.994;2023-11-21T00:58:36;46.75;;;16.92;;
59127;SDS011;44912;52.754;5.994;2023-11-21T01:01:01;40.95;;;15.88;;
59127;SDS011;44912;52.754;5.994;2023-11-21T01:03:28;40.97;;;16.10;;
59127;SDS011;44912;52.754;5.994;2023-11-21T01:05:53;49.67;;;17.08;;
59127;SDS011;44912;52.754;5.994;2023-11-21T01:08:19;50.65;;;16.80;;
59127;SDS011;44912;52.754;5.994;2023-11-21T01:10:45;38.78;;;16.05;;
59127;SDS011;44912;52.754;5.994;2023-11-21T01:13:10;36.30;;;15.60;;
59127;SDS011;44912;52.754;5.994;2023-11-21T01:15:36;44.40;;;15.98;;
59127;SDS011;44912;52.754;5.994;2023-11-21T01:18:01;40.67;;;15.27;;
59127;SDS011;44912;52.754;5.994;2023-11-21T01:20:28;43.83;;;16.77;;
59127;SDS011;44912;52.754;5.994;2023-11-21T01:22:54;39.58;;;14.85;;
59127;SDS011;44912;52.754;5.994;2023-11-21T01:25:20;41.22;;;15.65;;
59127;SDS011;44912;52.754;5.994;2023-11-21T01:27:46;40.83;;;16.00;;
59127;SDS011;44912;52.754;5.994;2023-11-21T01:30:12;42.53;;;16.40;;
59127;SDS011;44912;52.754;5.994;2023-11-21T01:32:38;42.00;;;15.65;;
59127;SDS011;44912;52.754;5.994;2023-11-21T01:35:04;45.08;;;15.63;;
59127;SDS011;44912;52.754;5.994;2023-11-21T01:37:31;38.08;;;15.50;;
59127;SDS011;44912;52.754;5.994;2023-11-21T01:39:58;41.03;;;16.33;;
59127;SDS011;44912;52.754;5.994;2023-11-21T01:42:24;46.97;;;16.30;;
59127;SDS011;44912;52.754;5.994;2023-11-21T01:44:49;41.00;;;16.02;;
59127;SDS011;44912;52.754;5.994;2023-11-21T01:47:15;42.47;;;16.33;;
59127;SDS011;44912;52.754;5.994;2023-11-21T01:49:43;43.03;;;15.55;;
59127;SDS011;44912;52.754;5.994;2023-11-21T01:52:10;44.85;;;15.43;;
59127;SDS011;44912;52.754;5.994;2023-11-21T01:54:37;42.65;;;16.33;;
59127;SDS011;44912;52.754;5.994;2023-11-21T01:57:03;36.65;;;14.02;;
59127;SDS011;44912;52.754;5.994;2023-11-21T01:59:37;42.15;;;15.57;;
59127;SDS011;44912;52.754;5.994;2023-11-21T02:02:06;45.83;;;16.42;;
59127;SDS011;44912;52.754;5.994;2023-11-21T02:04:33;46.47;;;15.50;;
59127;SDS011;44912;52.754;5.994;2023-11-21T02:06:59;44.45;;;16.42;;
59127;SDS011;44912;52.754;5.994;2023-11-21T02:09:28;41.55;;;16.52;;
59127;SDS011;44912;52.754;5.994;2023-11-21T02:11:55;44.55;;;14.95;;
59127;SDS011;44912;52.754;5.994;2023-11-21T02:14:23;42.20;;;15.30;;
59127;SDS011;44912;52.754;5.994;2023-11-21T02:16:51;43.55;;;14.82;;
59127;SDS011;44912;52.754;5.994;2023-11-21T02:19:18;39.58;;;15.20;;
59127;SDS011;44912;52.754;5.994;2023-11-21T02:21:47;42.60;;;15.15;;
59127;SDS011;44912;52.754;5.994;2023-11-21T02:24:15;37.92;;;15.05;;
59127;SDS011;44912;52.754;5.994;2023-11-21T02:26:42;38.17;;;14.27;;
59127;SDS011;44912;52.754;5.994;2023-11-21T02:29:08;39.45;;;15.25;;
59127;SDS011;44912;52.754;5.994;2023-11-21T02:31:37;40.55;;;15.23;;
59127;SDS011;44912;52.754;5.994;2023-11-21T02:34:10;33.50;;;13.87;;
59127;SDS011;44912;52.754;5.994;2023-11-21T02:36:38;43.65;;;15.13;;
59127;SDS011;44912;52.754;5.994;2023-11-21T02:39:04;41.60;;;15.43;;
59127;SDS011;44912;52.754;5.994;2023-11-21T02:41:29;34.80;;;14.68;;
59127;SDS011;44912;52.754;5.994;2023-11-21T02:43:55;38.67;;;14.13;;
59127;SDS011;44912;52.754;5.994;2023-11-21T02:46:20;32.85;;;13.88;;
59127;SDS011;44912;52.754;5.994;2023-11-21T02:48:47;32.45;;;13.02;;
59127;SDS011;44912;52.754;5.994;2023-11-21T02:51:12;41.05;;;14.23;;
59127;SDS011;44912;52.754;5.994;2023-11-21T02:53:38;40.13;;;13.50;;
59127;SDS011;44912;52.754;5.994;2023-11-21T02:56:04;35.08;;;12.93;;
59127;SDS011;44912;52.754;5.994;2023-11-21T02:58:30;33.22;;;13.43;;
59127;SDS011;44912;52.754;5.994;2023-11-21T03:00:55;35.30;;;12.80;;
59127;SDS011;44912;52.754;5.994;2023-11-21T03:03:21;33.65;;;12.48;;
59127;SDS011;44912;52.754;5.994;2023-11-21T03:05:49;29.33;;;11.88;;
59127;SDS011;44912;52.754;5.994;2023-11-21T03:08:15;35.17;;;12.80;;
59127;SDS011;44912;52.754;5.994;2023-11-21T03:10:40;32.58;;;13.02;;
59127;SDS011;44912;52.754;5.994;2023-11-21T03:13:06;41.17;;;13.05;;
59127;SDS011;44912;52.754;5.994;2023-11-21T03:15:31;40.33;;;14.80;;
59127;SDS011;44912;52.754;5.994;2023-11-21T03:17:58;41.78;;;12.65;;
59127;SDS011;44912;52.754;5.994;2023-11-21T03:20:23;37.05;;;13.18;;
59127;SDS011;44912;52.754;5.994;2023-11-21T03:22:49;41.22;;;12.82;;
59127;SDS011;44912;52.754;5.994;2023-11-21T03:25:15;34.53;;;12.98;;
59127;SDS011;44912;52.754;5.994;2023-11-21T03:27:42;36.38;;;12.23;;
59127;SDS011;44912;52.754;5.994;2023-11-21T03:30:09;41.35;;;12.23;;
59127;SDS011;44912;52.754;5.994;2023-11-21T03:32:36;32.25;;;11.63;;
59127;SDS011;44912;52.754;5.994;2023-11-21T03:35:01;33.47;;;11.65;;
59127;SDS011;44912;52.754;5.994;2023-11-21T03:37:28;35.13;;;11.32;;
59127;SDS011;44912;52.754;5.994;2023-11-21T03:39:54;33.05;;;11.13;;
59127;SDS011;44912;52.754;5.994;2023-11-21T03:42:21;32.42;;;11.05;;
59127;SDS011;44912;52.754;5.994;2023-11-21T03:44:46;25.63;;;10.80;;
59127;SDS011;44912;52.754;5.994;2023-11-21T03:47:12;33.75;;;10.68;;
59127;SDS011;44912;52.754;5.994;2023-11-21T03:49:37;32.28;;;10.93;;
59127;SDS011;44912;52.754;5.994;2023-11-21T03:52:03;31.88;;;10.82;;
59127;SDS011;44912;52.754;5.994;2023-11-21T03:54:29;33.85;;;10.73;;
59127;SDS011;44912;52.754;5.994;2023-11-21T03:56:54;26.05;;;10.10;;
59127;SDS011;44912;52.754;5.994;2023-11-21T03:59:20;29.40;;;10.00;;
59127;SDS011;44912;52.754;5.994;2023-11-21T04:01:49;27.48;;;9.82;;
59127;SDS011;44912;52.754;5.994;2023-11-21T04:04:15;25.40;;;9.73;;
59127;SDS011;44912;52.754;5.994;2023-11-21T04:06:41;31.65;;;9.82;;
59127;SDS011;44912;52.754;5.994;2023-11-21T04:09:06;30.88;;;8.80;;
59127;SDS011;44912;52.754;5.994;2023-11-21T04:11:32;22.98;;;8.77;;
59127;SDS011;44912;52.754;5.994;2023-11-21T04:13:57;26.38;;;8.50;;
59127;SDS011;44912;52.754;5.994;2023-11-21T04:16:23;22.63;;;9.32;;
59127;SDS011;44912;52.754;5.994;2023-11-21T04:18:49;17.65;;;7.90;;
59127;SDS011;44912;52.754;5.994;2023-11-21T04:21:14;22.67;;;8.70;;
59127;SDS011;44912;52.754;5.994;2023-11-21T04:23:40;19.83;;;8.55;;
59127;SDS011;44912;52.754;5.994;2023-11-21T04:26:05;21.23;;;7.90;;
59127;SDS011;44912;52.754;5.994;2023-11-21T04:28:31;27.17;;;9.15;;
59127;SDS011;44912;52.754;5.994;2023-11-21T04:30:57;25.15;;;8.60;;
59127;SDS011;44912;52.754;5.994;2023-11-21T04:33:22;27.65;;;9.23;;
59127;SDS011;44912;52.754;5.994;2023-11-21T04:35:48;25.70;;;8.18;;
59127;SDS011;44912;52.754;5.994;2023-11-21T04:38:14;20.00;;;7.40;;
59127;SDS011;44912;52.754;5.994;2023-11-21T04:40:39;23.20;;;8.30;;
59127;SDS011;44912;52.754;5.994;2023-11-21T04:43:05;20.95;;;7.68;;
59127;SDS011;44912;52.754;5.994;2023-11-21T04:45:31;22.95;;;8.02;;
59127;SDS011;44912;52.754;5.994;2023-11-21T04:47:56;20.35;;;8.38;;
59127;SDS011;44912;52.754;5.994;2023-11-21T04:50:22;23.10;;;8.38;;
59127;SDS011;44912;52.754;5.994;2023-11-21T04:52:47;19.55;;;7.47;;
59127;SDS011;44912;52.754;5.994;2023-11-21T04:55:13;21.38;;;8.35;;
59127;SDS011;44912;52.754;5.994;2023-11-21T04:57:40;18.05;;;6.68;;
59127;SDS011;44912;52.754;5.994;2023-11-21T05:00:06;18.38;;;7.97;;
59127;SDS011;44912;52.754;5.994;2023-11-21T05:02:34;21.63;;;7.90;;
59127;SDS011;44912;52.754;5.994;2023-11-21T05:05:00;17.95;;;7.78;;
59127;SDS011;44912;52.754;5.994;2023-11-21T05:07:26;23.90;;;7.78;;
59127;SDS011;44912;52.754;5.994;2023-11-21T05:09:54;17.85;;;7.18;;
59127;SDS011;44912;52.754;5.994;2023-11-21T05:12:21;18.10;;;8.10;;
59127;SDS011;44912;52.754;5.994;2023-11-21T05:14:50;19.63;;;7.68;;
59127;SDS011;44912;52.754;5.994;2023-11-21T05:17:16;20.13;;;7.60;;
59127;SDS011;44912;52.754;5.994;2023-11-21T05:19:42;19.13;;;7.38;;
59127;SDS011;44912;52.754;5.994;2023-11-21T05:22:11;16.83;;;7.88;;
59127;SDS011;44912;52.754;5.994;2023-11-21T05:24:37;19.17;;;7.90;;
59127;SDS011;44912;52.754;5.994;2023-11-21T05:27:04;17.30;;;7.70;;
59127;SDS011;44912;52.754;5.994;2023-11-21T05:29:29;19.00;;;7.20;;
59127;SDS011;44912;52.754;5.994;2023-11-21T05:31:55;19.98;;;7.43;;
59127;SDS011;44912;52.754;5.994;2023-11-21T05:34:21;16.25;;;7.40;;
59127;SDS011;44912;52.754;5.994;2023-11-21T05:36:48;21.05;;;7.70;;
59127;SDS011;44912;52.754;5.994;2023-11-21T05:39:15;20.23;;;8.00;;
59127;SDS011;44912;52.754;5.994;2023-11-21T05:41:42;23.98;;;8.68;;
59127;SDS011;44912;52.754;5.994;2023-11-21T05:44:08;19.48;;;7.95;;
59127;SDS011;44912;52.754;5.994;2023-11-21T05:46:34;20.75;;;8.20;;
59127;SDS011;44912;52.754;5.994;2023-11-21T05:48:59;19.70;;;7.97;;
59127;SDS011;44912;52.754;5.994;2023-11-21T05:51:25;18.73;;;7.80;;
59127;SDS011;44912;52.754;5.994;2023-11-21T05:53:51;28.58;;;9.13;;
59127;SDS011;44912;52.754;5.994;2023-11-21T05:56:16;23.90;;;8.55;;
59127;SDS011;44912;52.754;5.994;2023-11-21T05:58:43;31.80;;;10.13;;
59127;SDS011;44912;52.754;5.994;2023-11-21T06:01:08;29.30;;;9.85;;
59127;SDS011;44912;52.754;5.994;2023-11-21T06:03:34;33.55;;;10.55;;
59127;SDS011;44912;52.754;5.994;2023-11-21T06:06:00;27.98;;;11.20;;
59127;SDS011;44912;52.754;5.994;2023-11-21T06:08:25;36.20;;;11.77;;
59127;SDS011;44912;52.754;5.994;2023-11-21T06:10:51;35.10;;;11.88;;
59127;SDS011;44912;52.754;5.994;2023-11-21T06:13:17;37.13;;;13.50;;
59127;SDS011;44912;52.754;5.994;2023-11-21T06:15:49;42.00;;;13.35;;
59127;SDS011;44912;52.754;5.994;2023-11-21T06:18:14;29.05;;;12.68;;
59127;SDS011;44912;52.754;5.994;2023-11-21T06:20:40;32.97;;;12.85;;
59127;SDS011;44912;52.754;5.994;2023-11-21T06:23:05;32.20;;;13.10;;
59127;SDS011;44912;52.754;5.994;2023-11-21T06:25:31;30.83;;;12.63;;
59127;SDS011;44912;52.754;5.994;2023-11-21T06:28:01;30.77;;;13.40;;
59127;SDS011;44912;52.754;5.994;2023-11-21T06:30:26;31.67;;;13.00;;
59127;SDS011;44912;52.754;5.994;2023-11-21T06:32:53;33.05;;;13.82;;
59127;SDS011;44912;52.754;5.994;2023-11-21T06:35:20;36.00;;;13.77;;
59127;SDS011;44912;52.754;5.994;2023-11-21T06:37:45;32.08;;;13.48;;
59127;SDS011;44912;52.754;5.994;2023-11-21T06:40:14;32.17;;;13.35;;
59127;SDS011;44912;52.754;5.994;2023-11-21T06:42:40;33.85;;;13.07;;
59127;SDS011;44912;52.754;5.994;2023-11-21T06:45:06;31.38;;;12.45;;
59127;SDS011;44912;52.754;5.994;2023-11-21T06:47:32;32.20;;;12.65;;
59127;SDS011;44912;52.754;5.994;2023-11-21T06:49:58;34.17;;;12.38;;
59127;SDS011;44912;52.754;5.994;2023-11-21T06:52:24;30.48;;;11.93;;
59127;SDS011;44912;52.754;5.994;2023-11-21T06:54:50;25.90;;;12.00;;
59127;SDS011;44912;52.754;5.994;2023-11-21T06:57:16;26.63;;;11.13;;
59127;SDS011;44912;52.754;5.994;2023-11-21T06:59:42;30.25;;;11.52;;
59127;SDS011;44912;52.754;5.994;2023-11-21T07:02:07;28.80;;;11.70;;
59127;SDS011;44912;52.754;5.994;2023-11-21T07:04:34;27.40;;;12.35;;
59127;SDS011;44912;52.754;5.994;2023-11-21T07:07:03;27.67;;;11.38;;
59127;SDS011;44912;52.754;5.994;2023-11-21T07:09:29;26.60;;;11.25;;
59127;SDS011;44912;52.754;5.994;2023-11-21T07:11:56;26.75;;;11.18;;
59127;SDS011;44912;52.754;5.994;2023-11-21T07:14:21;23.35;;;11.10;;
59127;SDS011;44912;52.754;5.994;2023-11-21T07:16:47;24.25;;;11.02;;
59127;SDS011;44912;52.754;5.994;2023-11-21T07:19:13;24.83;;;10.65;;
59127;SDS011;44912;52.754;5.994;2023-11-21T07:21:39;24.55;;;10.73;;
59127;SDS011;44912;52.754;5.994;2023-11-21T07:24:06;24.02;;;11.20;;
59127;SDS011;44912;52.754;5.994;2023-11-21T07:26:32;25.52;;;11.20;;
59127;SDS011;44912;52.754;5.994;2023-11-21T07:28:59;24.65;;;10.52;;
59127;SDS011;44912;52.754;5.994;2023-11-21T07:31:25;25.30;;;11.00;;
59127;SDS011;44912;52.754;5.994;2023-11-21T07:33:51;23.83;;;10.07;;
59127;SDS011;44912;52.754;5.994;2023-11-21T07:36:17;21.42;;;9.98;;
59127;SDS011;44912;52.754;5.994;2023-11-21T07:38:43;22.23;;;10.73;;
59127;SDS011;44912;52.754;5.994;2023-11-21T07:41:10;22.85;;;10.07;;
59127;SDS011;44912;52.754;5.994;2023-11-21T07:43:36;22.58;;;10.43;;
59127;SDS011;44912;52.754;5.994;2023-11-21T07:46:05;21.52;;;10.20;;
59127;SDS011;44912;52.754;5.994;2023-11-21T07:48:30;23.13;;;10.57;;
59127;SDS011;44912;52.754;5.994;2023-11-21T07:50:57;20.70;;;10.38;;
59127;SDS011;44912;52.754;5.994;2023-11-21T07:53:26;24.27;;;10.23;;
59127;SDS011;44912;52.754;5.994;2023-11-21T07:55:54;25.33;;;10.45;;
59127;SDS011;44912;52.754;5.994;2023-11-21T07:58:20;27.42;;;11.35;;
59127;SDS011;44912;52.754;5.994;2023-11-21T08:00:45;27.15;;;11.38;;
59127;SDS011;44912;52.754;5.994;2023-11-21T08:03:13;27.38;;;11.55;;
59127;SDS011;44912;52.754;5.994;2023-11-21T08:05:38;30.73;;;11.75;;
59127;SDS011;44912;52.754;5.994;2023-11-21T08:08:04;29.75;;;12.02;;
59127;SDS011;44912;52.754;5.994;2023-11-21T08:10:30;28.05;;;11.93;;
59127;SDS011;44912;52.754;5.994;2023-11-21T08:12:55;30.42;;;12.57;;
59127;SDS011;44912;52.754;5.994;2023-11-21T08:15:21;30.02;;;12.65;;
59127;SDS011;44912;52.754;5.994;2023-11-21T08:17:47;25.77;;;12.32;;
59127;SDS011;44912;52.754;5.994;2023-11-21T08:20:13;25.92;;;11.45;;
59127;SDS011;44912;52.754;5.994;2023-11-21T08:22:41;26.40;;;11.07;;
59127;SDS011;44912;52.754;5.994;2023-11-21T08:25:10;22.27;;;10.68;;
59127;SDS011;44912;52.754;5.994;2023-11-21T08:27:36;23.17;;;10.32;;
59127;SDS011;44912;52.754;5.994;2023-11-21T08:30:05;23.10;;;10.18;;
59127;SDS011;44912;52.754;5.994;2023-11-21T08:32:31;19.95;;;9.48;;
59127;SDS011;44912;52.754;5.994;2023-11-21T08:34:58;20.33;;;9.52;;
59127;SDS011;44912;52.754;5.994;2023-11-21T08:37:24;24.70;;;11.00;;
59127;SDS011;44912;52.754;5.994;2023-11-21T08:39:50;19.75;;;9.68;;
59127;SDS011;44912;52.754;5.994;2023-11-21T08:42:17;23.27;;;10.13;;
59127;SDS011;44912;52.754;5.994;2023-11-21T08:44:43;23.02;;;10.13;;
59127;SDS011;44912;52.754;5.994;2023-11-21T08:47:09;24.10;;;11.23;;
59127;SDS011;44912;52.754;5.994;2023-11-21T08:49:34;26.13;;;11.57;;
59127;SDS011;44912;52.754;5.994;2023-11-21T08:52:00;25.80;;;11.95;;
59127;SDS011;44912;52.754;5.994;2023-11-21T08:54:26;25.33;;;12.23;;
59127;SDS011;44912;52.754;5.994;2023-11-21T08:56:52;24.80;;;12.07;;
59127;SDS011;44912;52.754;5.994;2023-11-21T08:59:18;29.25;;;12.07;;
59127;SDS011;44912;52.754;5.994;2023-11-21T09:01:45;27.25;;;11.82;;
59127;SDS011;44912;52.754;5.994;2023-11-21T09:04:11;26.48;;;11.50;;
59127;SDS011;44912;52.754;5.994;2023-11-21T09:06:37;26.25;;;12.35;;
59127;SDS011;44912;52.754;5.994;2023-11-21T09:09:03;25.92;;;11.77;;
59127;SDS011;44912;52.754;5.994;2023-11-21T09:11:30;25.63;;;11.68;;
59127;SDS011;44912;52.754;5.994;2023-11-21T09:14:00;27.90;;;11.98;;
59127;SDS011;44912;52.754;5.994;2023-11-21T09:16:25;23.98;;;10.85;;
59127;SDS011;44912;52.754;5.994;2023-11-21T09:18:51;22.70;;;10.85;;
59127;SDS011;44912;52.754;5.994;2023-11-21T09:21:16;27.08;;;11.50;;
59127;SDS011;44912;52.754;5.994;2023-11-21T09:23:44;25.52;;;11.52;;
59127;SDS011;44912;52.754;5.994;2023-11-21T09:26:09;28.40;;;12.48;;
59127;SDS011;44912;52.754;5.994;2023-11-21T09:28:35;26.42;;;11.73;;
59127;SDS011;44912;52.754;5.994;2023-11-21T09:31:03;30.83;;;12.38;;
59127;SDS011;44912;52.754;5.994;2023-11-21T09:33:29;28.55;;;11.63;;
59127;SDS011;44912;52.754;5.994;2023-11-21T09:35:56;30.95;;;11.88;;
59127;SDS011;44912;52.754;5.994;2023-11-21T09:38:22;24.48;;;10.30;;
59127;SDS011;44912;52.754;5.994;2023-11-21T09:40:48;21.20;;;8.70;;
59127;SDS011;44912;52.754;5.994;2023-11-21T09:43:18;22.30;;;8.43;;
59127;SDS011;44912;52.754;5.994;2023-11-21T09:45:48;26.67;;;9.15;;
59127;SDS011;44912;52.754;5.994;2023-11-21T09:48:21;21.25;;;8.55;;
59127;SDS011;44912;52.754;5.994;2023-11-21T09:50:49;18.52;;;7.72;;
59127;SDS011;44912;52.754;5.994;2023-11-21T09:53:19;19.58;;;8.23;;
59127;SDS011;44912;52.754;5.994;2023-11-21T09:55:47;18.88;;;7.53;;
59127;SDS011;44912;52.754;5.994;2023-11-21T09:58:14;17.10;;;7.65;;
59127;SDS011;44912;52.754;5.994;2023-11-21T10:00:40;18.55;;;7.30;;
59127;SDS011;44912;52.754;5.994;2023-11-21T10:03:07;18.65;;;7.38;;
59127;SDS011;44912;52.754;5.994;2023-11-21T10:05:33;20.15;;;8.48;;
59127;SDS011;44912;52.754;5.994;2023-11-21T10:08:00;17.75;;;7.40;;
59127;SDS011;44912;52.754;5.994;2023-11-21T10:10:26;17.25;;;8.57;;
59127;SDS011;44912;52.754;5.994;2023-11-21T10:12:57;19.75;;;8.45;;
59127;SDS011;44912;52.754;5.994;2023-11-21T10:15:27;19.15;;;8.57;;
59127;SDS011;44912;52.754;5.994;2023-11-21T10:17:54;15.68;;;7.53;;
59127;SDS011;44912;52.754;5.994;2023-11-21T10:20:20;16.67;;;7.80;;
59127;SDS011;44912;52.754;5.994;2023-11-21T10:22:49;16.75;;;7.88;;
59127;SDS011;44912;52.754;5.994;2023-11-21T10:25:15;14.98;;;7.70;;
59127;SDS011;44912;52.754;5.994;2023-11-21T10:27:41;17.98;;;8.40;;
59127;SDS011;44912;52.754;5.994;2023-11-21T10:30:08;17.75;;;8.57;;
59127;SDS011;44912;52.754;5.994;2023-11-21T10:32:37;18.45;;;8.90;;
59127;SDS011;44912;52.754;5.994;2023-11-21T10:35:08;15.82;;;8.32;;
59127;SDS011;44912;52.754;5.994;2023-11-21T10:37:38;17.30;;;9.30;;
59127;SDS011;44912;52.754;5.994;2023-11-21T10:40:07;18.08;;;9.82;;
59127;SDS011;44912;52.754;5.994;2023-11-21T10:42:40;19.90;;;11.00;;
59127;SDS011;44912;52.754;5.994;2023-11-21T10:45:09;23.30;;;11.45;;
59127;SDS011;44912;52.754;5.994;2023-11-21T10:47:38;21.13;;;11.55;;
59127;SDS011;44912;52.754;5.994;2023-11-21T10:50:07;25.20;;;12.57;;
59127;SDS011;44912;52.754;5.994;2023-11-21T10:52:36;22.50;;;12.70;;
59127;SDS011;44912;52.754;5.994;2023-11-21T10:55:15;22.10;;;13.05;;
59127;SDS011;44912;52.754;5.994;2023-11-21T10:57:43;22.85;;;13.75;;
59127;SDS011;44912;52.754;5.994;2023-11-21T11:00:11;23.52;;;14.27;;
59127;SDS011;44912;52.754;5.994;2023-11-21T11:02:38;23.33;;;14.05;;
59127;SDS011;44912;52.754;5.994;2023-11-21T11:05:04;23.55;;;14.15;;
59127;SDS011;44912;52.754;5.994;2023-11-21T11:07:31;24.08;;;14.45;;
59127;SDS011;44912;52.754;5.994;2023-11-21T11:09:59;23.63;;;15.40;;
59127;SDS011;44912;52.754;5.994;2023-11-21T11:12:25;22.42;;;15.13;;
59127;SDS011;44912;52.754;5.994;2023-11-21T11:14:51;23.50;;;15.38;;
59127;SDS011;44912;52.754;5.994;2023-11-21T11:17:18;24.77;;;15.25;;
59127;SDS011;44912;52.754;5.994;2023-11-21T11:19:45;25.48;;;16.55;;
59127;SDS011;44912;52.754;5.994;2023-11-21T11:25:02;23.65;;;16.13;;
59127;SDS011;44912;52.754;5.994;2023-11-21T11:27:55;26.17;;;16.27;;
59127;SDS011;44912;52.754;5.994;2023-11-21T11:33:51;25.55;;;15.45;;
59127;SDS011;44912;52.754;5.994;2023-11-21T11:36:22;26.80;;;15.55;;
59127;SDS011;44912;52.754;5.994;2023-11-21T11:38:53;25.45;;;15.65;;
59127;SDS011;44912;52.754;5.994;2023-11-21T11:41:33;24.25;;;16.10;;
59127;SDS011;44912;52.754;5.994;2023-11-21T11:44:00;24.30;;;14.85;;
59127;SDS011;44912;52.754;5.994;2023-11-21T11:46:44;26.00;;;15.93;;
59127;SDS011;44912;52.754;5.994;2023-11-21T11:49:22;26.77;;;15.90;;
59127;SDS011;44912;52.754;5.994;2023-11-21T11:52:31;24.48;;;15.85;;
59127;SDS011;44912;52.754;5.994;2023-11-21T11:54:55;24.27;;;14.93;;
59127;SDS011;44912;52.754;5.994;2023-11-21T11:57:23;21.27;;;14.90;;
59127;SDS011;44912;52.754;5.994;2023-11-21T12:02:37;21.77;;;14.60;;
59127;SDS011;44912;52.754;5.994;2023-11-21T12:05:11;23.35;;;16.20;;
59127;SDS011;44912;52.754;5.994;2023-11-21T12:07:41;22.75;;;15.55;;
59127;SDS011;44912;52.754;5.994;2023-11-21T12:10:17;22.83;;;15.70;;
59127;SDS011;44912;52.754;5.994;2023-11-21T12:12:44;23.20;;;14.85;;
59127;SDS011;44912;52.754;5.994;2023-11-21T12:15:11;21.17;;;14.85;;
59127;SDS011;44912;52.754;5.994;2023-11-21T12:17:38;25.88;;;16.00;;
59127;SDS011;44912;52.754;5.994;2023-11-21T12:20:04;23.70;;;16.30;;
59127;SDS011;44912;52.754;5.994;2023-11-21T12:22:49;21.67;;;14.85;;
59127;SDS011;44912;52.754;5.994;2023-11-21T12:25:20;23.17;;;14.38;;
59127;SDS011;44912;52.754;5.994;2023-11-21T12:27:52;21.15;;;14.55;;
59127;SDS011;44912;52.754;5.994;2023-11-21T12:30:19;19.48;;;14.13;;
59127;SDS011;44912;52.754;5.994;2023-11-21T12:32:51;19.95;;;13.25;;
59127;SDS011;44912;52.754;5.994;2023-11-21T12:35:22;17.48;;;12.52;;
59127;SDS011;44912;52.754;5.994;2023-11-21T12:37:52;16.17;;;11.80;;
59127;SDS011;44912;52.754;5.994;2023-11-21T12:40:19;16.17;;;11.27;;
59127;SDS011;44912;52.754;5.994;2023-11-21T12:42:48;14.55;;;10.52;;
59127;SDS011;44912;52.754;5.994;2023-11-21T12:48:01;15.68;;;10.27;;
59127;SDS011;44912;52.754;5.994;2023-11-21T12:50:36;15.63;;;10.32;;
59127;SDS011;44912;52.754;5.994;2023-11-21T12:55:30;17.10;;;10.70;;
59127;SDS011;44912;52.754;5.994;2023-11-21T12:57:57;15.43;;;10.73;;
59127;SDS011;44912;52.754;5.994;2023-11-21T13:00:34;14.95;;;10.02;;
59127;SDS011;44912;52.754;5.994;2023-11-21T13:03:02;14.45;;;9.95;;
59127;SDS011;44912;52.754;5.994;2023-11-21T13:05:30;13.68;;;9.65;;
59127;SDS011;44912;52.754;5.994;2023-11-21T13:07:58;13.10;;;9.27;;
59127;SDS011;44912;52.754;5.994;2023-11-21T13:10:28;11.90;;;8.60;;
59127;SDS011;44912;52.754;5.994;2023-11-21T13:12:58;13.50;;;9.88;;
59127;SDS011;44912;52.754;5.994;2023-11-21T13:15:25;15.38;;;9.80;;
59127;SDS011;44912;52.754;5.994;2023-11-21T13:17:52;15.30;;;9.18;;
59127;SDS011;44912;52.754;5.994;2023-11-21T13:20:22;13.40;;;8.43;;
59127;SDS011;44912;52.754;5.994;2023-11-21T13:22:49;12.38;;;8.70;;
59127;SDS011;44912;52.754;5.994;2023-11-21T13:25:23;14.15;;;9.23;;
59127;SDS011;44912;52.754;5.994;2023-11-21T13:27:48;12.77;;;8.98;;
59127;SDS011;44912;52.754;5.994;2023-11-21T13:30:15;15.05;;;9.13;;
59127;SDS011;44912;52.754;5.994;2023-11-21T13:32:44;12.75;;;8.30;;
59127;SDS011;44912;52.754;5.994;2023-11-21T13:35:11;12.15;;;8.32;;
59127;SDS011;44912;52.754;5.994;2023-11-21T13:37:49;15.35;;;8.73;;
59127;SDS011;44912;52.754;5.994;2023-11-21T13:40:20;11.13;;;7.93;;
59127;SDS011;44912;52.754;5.994;2023-11-21T13:42:53;11.60;;;7.53;;
59127;SDS011;44912;52.754;5.994;2023-11-21T13:45:23;11.95;;;8.10;;
59127;SDS011;44912;52.754;5.994;2023-11-21T13:47:50;12.10;;;7.93;;
59127;SDS011;44912;52.754;5.994;2023-11-21T13:50:17;12.48;;;8.15;;
59127;SDS011;44912;52.754;5.994;2023-11-21T13:52:48;13.00;;;8.15;;
59127;SDS011;44912;52.754;5.994;2023-11-21T13:55:14;13.20;;;7.50;;
59127;SDS011;44912;52.754;5.994;2023-11-21T13:57:42;10.43;;;6.05;;
59127;SDS011;44912;52.754;5.994;2023-11-21T14:00:14;10.20;;;6.75;;
59127;SDS011;44912;52.754;5.994;2023-11-21T14:03:00;11.73;;;6.93;;
59127;SDS011;44912;52.754;5.994;2023-11-21T14:05:27;11.25;;;6.63;;
59127;SDS011;44912;52.754;5.994;2023-11-21T14:07:57;10.52;;;6.68;;
59127;SDS011;44912;52.754;5.994;2023-11-21T14:10:29;10.93;;;6.65;;
59127;SDS011;44912;52.754;5.994;2023-11-21T14:13:02;11.32;;;7.03;;
59127;SDS011;44912;52.754;5.994;2023-11-21T14:15:29;12.80;;;7.47;;
59127;SDS011;44912;52.754;5.994;2023-11-21T14:17:56;11.75;;;7.35;;
59127;SDS011;44912;52.754;5.994;2023-11-21T14:20:21;10.93;;;7.00;;
59127;SDS011;44912;52.754;5.994;2023-11-21T14:22:47;12.25;;;7.32;;
59127;SDS011;44912;52.754;5.994;2023-11-21T14:25:13;9.55;;;6.22;;
59127;SDS011;44912;52.754;5.994;2023-11-21T14:27:39;9.90;;;6.63;;
59127;SDS011;44912;52.754;5.994;2023-11-21T14:30:05;11.25;;;6.55;;
59127;SDS011;44912;52.754;5.994;2023-11-21T14:32:31;12.43;;;6.65;;
59127;SDS011;44912;52.754;5.994;2023-11-21T14:34:57;10.45;;;6.53;;
59127;SDS011;44912;52.754;5.994;2023-11-21T14:37:22;9.98;;;6.35;;
59127;SDS011;44912;52.754;5.994;2023-11-21T14:39:49;11.57;;;6.90;;
59127;SDS011;44912;52.754;5.994;2023-11-21T14:42:14;12.25;;;6.95;;